sensor_id;sensor_type;location;lat;lon;timestamp;temperature;humidity
13436;DHT22;6790;49.520;8.504;2023-07-28T00:02:09;17.30;99.90
13436;DHT22;6790;49.520;8.504;2023-07-28T00:04:35;18.00;99.90
13436;DHT22;6790;49.520;8.504;2023-07-28T00:07:02;17.50;99.90
13436;DHT22;6790;49.520;8.504;2023-07-28T00:09:28;17.60;99.90
13436;DHT22;6790;49.520;8.504;2023-07-28T00:11:55;17.60;99.90
13436;DHT22;6790;49.520;8.504;2023-07-28T00:14:21;17.20;99.90
13436;DHT22;6790;49.520;8.504;2023-07-28T00:16:48;17.60;99.90
13436;DHT22;6790;49.520;8.504;2023-07-28T00:19:13;18.00;99.90
13436;DHT22;6790;49.520;8.504;2023-07-28T00:21:39;17.90;99.90
13436;DHT22;6790;49.520;8.504;2023-07-28T00:24:05;17.40;99.90
13436;DHT22;6790;49.520;8.504;2023-07-28T00:26:30;17.20;99.90
13436;DHT22;6790;49.520;8.504;2023-07-28T00:28:56;17.20;99.90
13436;DHT22;6790;49.520;8.504;2023-07-28T00:31:24;17.40;99.90
13436;DHT22;6790;49.520;8.504;2023-07-28T00:33:50;17.30;99.90
13436;DHT22;6790;49.520;8.504;2023-07-28T00:36:15;18.00;99.90
13436;DHT22;6790;49.520;8.504;2023-07-28T00:38:41;18.10;99.90
13436;DHT22;6790;49.520;8.504;2023-07-28T00:41:07;17.70;99.90
13436;DHT22;6790;49.520;8.504;2023-07-28T00:43:32;17.60;99.90
13436;DHT22;6790;49.520;8.504;2023-07-28T00:45:58;17.30;99.90
13436;DHT22;6790;49.520;8.504;2023-07-28T00:48:24;17.40;99.90
13436;DHT22;6790;49.520;8.504;2023-07-28T00:50:51;18.10;99.90
13436;DHT22;6790;49.520;8.504;2023-07-28T00:53:18;17.80;99.90
13436;DHT22;6790;49.520;8.504;2023-07-28T00:55:46;17.30;99.90
13436;DHT22;6790;49.520;8.504;2023-07-28T00:58:11;18.10;99.90
13436;DHT22;6790;49.520;8.504;2023-07-28T01:00:37;18.20;99.90
13436;DHT22;6790;49.520;8.504;2023-07-28T01:03:03;18.20;99.90
13436;DHT22;6790;49.520;8.504;2023-07-28T01:05:38;17.80;99.90
13436;DHT22;6790;49.520;8.504;2023-07-28T01:08:17;17.50;99.90
13436;DHT22;6790;49.520;8.504;2023-07-28T01:10:45;18.10;99.90
13436;DHT22;6790;49.520;8.504;2023-07-28T01:13:10;17.40;99.90
13436;DHT22;6790;49.520;8.504;2023-07-28T01:15:36;17.70;99.90
13436;DHT22;6790;49.520;8.504;2023-07-28T01:18:02;17.90;99.90
13436;DHT22;6790;49.520;8.504;2023-07-28T01:20:30;17.60;99.90
13436;DHT22;6790;49.520;8.504;2023-07-28T01:26:03;17.90;99.90
13436;DHT22;6790;49.520;8.504;2023-07-28T01:28:33;17.30;99.90
13436;DHT22;6790;49.520;8.504;2023-07-28T01:31:02;17.30;99.90
13436;DHT22;6790;49.520;8.504;2023-07-28T01:33:30;18.40;99.90
13436;DHT22;6790;49.520;8.504;2023-07-28T01:35:55;17.40;99.90
13436;DHT22;6790;49.520;8.504;2023-07-28T01:38:21;17.70;99.90
13436;DHT22;6790;49.520;8.504;2023-07-28T01:40:47;17.30;99.90
13436;DHT22;6790;49.520;8.504;2023-07-28T01:43:13;17.80;99.90
13436;DHT22;6790;49.520;8.504;2023-07-28T01:45:38;17.40;99.90
13436;DHT22;6790;49.520;8.504;2023-07-28T01:48:04;18.30;99.90
13436;DHT22;6790;49.520;8.504;2023-07-28T01:50:31;18.40;99.90
13436;DHT22;6790;49.520;8.504;2023-07-28T01:52:57;17.40;99.90
13436;DHT22;6790;49.520;8.504;2023-07-28T01:55:22;17.90;99.90
13436;DHT22;6790;49.520;8.504;2023-07-28T01:57:57;18.40;99.90
13436;DHT22;6790;49.520;8.504;2023-07-28T02:00:24;17.40;99.90
13436;DHT22;6790;49.520;8.504;2023-07-28T02:02:49;17.30;99.90
13436;DHT22;6790;49.520;8.504;2023-07-28T02:05:15;18.10;99.90
13436;DHT22;6790;49.520;8.504;2023-07-28T02:07:41;17.80;99.90
13436;DHT22;6790;49.520;8.504;2023-07-28T02:10:07;18.30;99.90
13436;DHT22;6790;49.520;8.504;2023-07-28T02:12:33;18.40;99.90
13436;DHT22;6790;49.520;8.504;2023-07-28T02:14:59;18.00;99.90
13436;DHT22;6790;49.520;8.504;2023-07-28T02:17:25;17.60;99.90
13436;DHT22;6790;49.520;8.504;2023-07-28T02:19:51;18.00;99.90
13436;DHT22;6790;49.520;8.504;2023-07-28T02:22:17;17.50;99.90
13436;DHT22;6790;49.520;8.504;2023-07-28T02:24:42;17.60;99.90
13436;DHT22;6790;49.520;8.504;2023-07-28T02:27:08;17.80;99.90
13436;DHT22;6790;49.520;8.504;2023-07-28T02:29:34;18.00;99.90
13436;DHT22;6790;49.520;8.504;2023-07-28T02:31:59;18.10;99.90
13436;DHT22;6790;49.520;8.504;2023-07-28T02:34:25;17.40;99.90
13436;DHT22;6790;49.520;8.504;2023-07-28T02:36:51;18.20;99.90
13436;DHT22;6790;49.520;8.504;2023-07-28T02:39:16;17.70;99.90
13436;DHT22;6790;49.520;8.504;2023-07-28T02:41:42;17.70;99.90
13436;DHT22;6790;49.520;8.504;2023-07-28T02:44:08;17.40;99.90
13436;DHT22;6790;49.520;8.504;2023-07-28T02:46:33;18.40;99.90
13436;DHT22;6790;49.520;8.504;2023-07-28T02:48:59;18.40;99.90
13436;DHT22;6790;49.520;8.504;2023-07-28T02:51:25;17.70;99.90
13436;DHT22;6790;49.520;8.504;2023-07-28T02:53:51;18.30;99.90
13436;DHT22;6790;49.520;8.504;2023-07-28T02:56:16;17.60;99.90
13436;DHT22;6790;49.520;8.504;2023-07-28T02:58:42;17.30;99.90
13436;DHT22;6790;49.520;8.504;2023-07-28T03:01:08;17.40;99.90
13436;DHT22;6790;49.520;8.504;2023-07-28T03:03:33;17.40;99.90
13436;DHT22;6790;49.520;8.504;2023-07-28T03:05:59;17.20;99.90
13436;DHT22;6790;49.520;8.504;2023-07-28T03:08:25;17.20;99.90
13436;DHT22;6790;49.520;8.504;2023-07-28T03:10:50;17.70;99.90
13436;DHT22;6790;49.520;8.504;2023-07-28T03:13:21;17.40;99.90
13436;DHT22;6790;49.520;8.504;2023-07-28T03:15:47;18.20;99.90
13436;DHT22;6790;49.520;8.504;2023-07-28T03:18:13;17.20;99.90
13436;DHT22;6790;49.520;8.504;2023-07-28T03:20:38;18.40;99.90
13436;DHT22;6790;49.520;8.504;2023-07-28T03:23:04;18.30;99.90
13436;DHT22;6790;49.520;8.504;2023-07-28T03:25:30;18.20;99.90
13436;DHT22;6790;49.520;8.504;2023-07-28T03:27:55;18.00;99.90
13436;DHT22;6790;49.520;8.504;2023-07-28T03:30:21;17.20;99.90
13436;DHT22;6790;49.520;8.504;2023-07-28T03:32:47;17.30;99.90
13436;DHT22;6790;49.520;8.504;2023-07-28T03:35:13;17.40;99.90
13436;DHT22;6790;49.520;8.504;2023-07-28T03:37:38;18.30;99.90
13436;DHT22;6790;49.520;8.504;2023-07-28T03:40:05;18.40;99.90
13436;DHT22;6790;49.520;8.504;2023-07-28T03:42:31;18.40;99.90
13436;DHT22;6790;49.520;8.504;2023-07-28T03:44:57;17.60;99.90
13436;DHT22;6790;49.520;8.504;2023-07-28T03:47:23;18.10;99.90
13436;DHT22;6790;49.520;8.504;2023-07-28T03:49:49;17.40;99.90
13436;DHT22;6790;49.520;8.504;2023-07-28T03:52:14;18.20;99.90
13436;DHT22;6790;49.520;8.504;2023-07-28T03:54:40;18.10;99.90
13436;DHT22;6790;49.520;8.504;2023-07-28T03:57:06;18.40;99.90
13436;DHT22;6790;49.520;8.504;2023-07-28T03:59:33;18.10;99.90
13436;DHT22;6790;49.520;8.504;2023-07-28T04:01:59;18.50;99.90
13436;DHT22;6790;49.520;8.504;2023-07-28T04:04:25;17.60;99.90
13436;DHT22;6790;49.520;8.504;2023-07-28T04:06:50;17.60;99.90
13436;DHT22;6790;49.520;8.504;2023-07-28T04:09:17;18.60;99.90
13436;DHT22;6790;49.520;8.504;2023-07-28T04:11:43;18.30;99.90
13436;DHT22;6790;49.520;8.504;2023-07-28T04:14:09;17.60;99.90
13436;DHT22;6790;49.520;8.504;2023-07-28T04:16:35;18.50;99.90
13436;DHT22;6790;49.520;8.504;2023-07-28T04:19:01;18.20;99.90
13436;DHT22;6790;49.520;8.504;2023-07-28T04:21:26;18.50;99.90
13436;DHT22;6790;49.520;8.504;2023-07-28T04:23:52;17.80;99.90
13436;DHT22;6790;49.520;8.504;2023-07-28T04:26:18;18.40;99.90
13436;DHT22;6790;49.520;8.504;2023-07-28T04:28:44;18.50;99.90
13436;DHT22;6790;49.520;8.504;2023-07-28T04:31:10;18.50;99.90
13436;DHT22;6790;49.520;8.504;2023-07-28T04:33:38;17.60;99.90
13436;DHT22;6790;49.520;8.504;2023-07-28T04:36:06;18.60;99.90
13436;DHT22;6790;49.520;8.504;2023-07-28T04:38:32;18.20;99.90
13436;DHT22;6790;49.520;8.504;2023-07-28T04:40:57;18.50;99.90
13436;DHT22;6790;49.520;8.504;2023-07-28T04:43:23;18.40;99.90
13436;DHT22;6790;49.520;8.504;2023-07-28T04:45:49;17.50;99.90
13436;DHT22;6790;49.520;8.504;2023-07-28T04:48:14;17.80;99.90
13436;DHT22;6790;49.520;8.504;2023-07-28T04:50:40;17.60;99.90
13436;DHT22;6790;49.520;8.504;2023-07-28T04:53:06;17.50;99.90
13436;DHT22;6790;49.520;8.504;2023-07-28T04:55:31;18.60;99.90
13436;DHT22;6790;49.520;8.504;2023-07-28T04:57:57;18.40;99.90
13436;DHT22;6790;49.520;8.504;2023-07-28T05:00:23;17.40;99.90
13436;DHT22;6790;49.520;8.504;2023-07-28T05:02:49;17.40;99.90
13436;DHT22;6790;49.520;8.504;2023-07-28T05:05:14;18.70;99.90
13436;DHT22;6790;49.520;8.504;2023-07-28T05:07:40;18.10;99.90
13436;DHT22;6790;49.520;8.504;2023-07-28T05:10:07;17.50;99.90
13436;DHT22;6790;49.520;8.504;2023-07-28T05:12:33;17.60;99.90
13436;DHT22;6790;49.520;8.504;2023-07-28T05:14:59;17.60;99.90
13436;DHT22;6790;49.520;8.504;2023-07-28T05:17:25;17.60;99.90
13436;DHT22;6790;49.520;8.504;2023-07-28T05:19:51;18.90;99.90
13436;DHT22;6790;49.520;8.504;2023-07-28T05:22:17;18.00;99.90
13436;DHT22;6790;49.520;8.504;2023-07-28T05:24:43;18.40;99.90
13436;DHT22;6790;49.520;8.504;2023-07-28T05:27:11;17.70;99.90
13436;DHT22;6790;49.520;8.504;2023-07-28T05:29:37;18.10;99.90
13436;DHT22;6790;49.520;8.504;2023-07-28T05:32:03;18.70;99.90
13436;DHT22;6790;49.520;8.504;2023-07-28T05:34:29;18.90;99.90
13436;DHT22;6790;49.520;8.504;2023-07-28T05:36:55;18.80;99.90
13436;DHT22;6790;49.520;8.504;2023-07-28T05:39:21;17.70;99.90
13436;DHT22;6790;49.520;8.504;2023-07-28T05:41:46;18.90;99.90
13436;DHT22;6790;49.520;8.504;2023-07-28T05:44:12;19.10;99.90
13436;DHT22;6790;49.520;8.504;2023-07-28T05:46:38;19.10;99.90
13436;DHT22;6790;49.520;8.504;2023-07-28T05:49:04;18.20;99.90
13436;DHT22;6790;49.520;8.504;2023-07-28T05:51:30;18.70;99.90
13436;DHT22;6790;49.520;8.504;2023-07-28T05:53:56;18.80;99.90
13436;DHT22;6790;49.520;8.504;2023-07-28T05:56:21;19.20;99.90
13436;DHT22;6790;49.520;8.504;2023-07-28T05:58:48;19.20;99.90
13436;DHT22;6790;49.520;8.504;2023-07-28T06:01:14;19.00;99.90
13436;DHT22;6790;49.520;8.504;2023-07-28T06:03:40;18.00;99.90
13436;DHT22;6790;49.520;8.504;2023-07-28T06:06:06;18.50;99.90
13436;DHT22;6790;49.520;8.504;2023-07-28T06:08:32;18.10;99.90
13436;DHT22;6790;49.520;8.504;2023-07-28T06:10:59;18.50;99.90
13436;DHT22;6790;49.520;8.504;2023-07-28T06:13:24;19.00;99.90
13436;DHT22;6790;49.520;8.504;2023-07-28T06:15:53;19.40;99.90
13436;DHT22;6790;49.520;8.504;2023-07-28T06:18:20;18.50;99.90
13436;DHT22;6790;49.520;8.504;2023-07-28T06:20:47;18.10;99.90
13436;DHT22;6790;49.520;8.504;2023-07-28T06:23:13;19.00;99.90
13436;DHT22;6790;49.520;8.504;2023-07-28T06:25:38;19.10;99.90
13436;DHT22;6790;49.520;8.504;2023-07-28T06:28:09;19.40;99.90
13436;DHT22;6790;49.520;8.504;2023-07-28T06:30:36;18.30;99.90
13436;DHT22;6790;49.520;8.504;2023-07-28T06:33:03;18.10;99.90
13436;DHT22;6790;49.520;8.504;2023-07-28T06:35:30;18.10;99.90
13436;DHT22;6790;49.520;8.504;2023-07-28T06:37:56;19.20;99.90
13436;DHT22;6790;49.520;8.504;2023-07-28T06:40:22;18.70;99.90
13436;DHT22;6790;49.520;8.504;2023-07-28T06:42:48;18.30;99.90
13436;DHT22;6790;49.520;8.504;2023-07-28T06:45:13;18.70;99.90
13436;DHT22;6790;49.520;8.504;2023-07-28T06:47:39;18.40;99.90
13436;DHT22;6790;49.520;8.504;2023-07-28T06:50:05;19.30;99.90
13436;DHT22;6790;49.520;8.504;2023-07-28T06:52:31;18.60;99.90
13436;DHT22;6790;49.520;8.504;2023-07-28T06:54:57;18.90;99.90
13436;DHT22;6790;49.520;8.504;2023-07-28T06:57:23;18.10;99.90
13436;DHT22;6790;49.520;8.504;2023-07-28T06:59:50;18.50;99.90
13436;DHT22;6790;49.520;8.504;2023-07-28T07:02:16;19.20;99.90
13436;DHT22;6790;49.520;8.504;2023-07-28T07:04:42;19.50;99.90
13436;DHT22;6790;49.520;8.504;2023-07-28T07:07:08;19.00;99.90
13436;DHT22;6790;49.520;8.504;2023-07-28T07:12:09;19.60;99.90
13436;DHT22;6790;49.520;8.504;2023-07-28T07:14:35;19.20;99.90
13436;DHT22;6790;49.520;8.504;2023-07-28T07:17:01;18.30;99.90
13436;DHT22;6790;49.520;8.504;2023-07-28T07:19:28;19.60;99.90
13436;DHT22;6790;49.520;8.504;2023-07-28T07:21:54;18.70;99.90
13436;DHT22;6790;49.520;8.504;2023-07-28T07:24:20;18.90;99.90
13436;DHT22;6790;49.520;8.504;2023-07-28T07:26:46;18.80;99.90
13436;DHT22;6790;49.520;8.504;2023-07-28T07:29:12;19.00;99.90
13436;DHT22;6790;49.520;8.504;2023-07-28T07:31:38;18.70;99.90
13436;DHT22;6790;49.520;8.504;2023-07-28T07:34:04;18.70;99.90
13436;DHT22;6790;49.520;8.504;2023-07-28T07:36:30;19.60;99.90
13436;DHT22;6790;49.520;8.504;2023-07-28T07:38:56;18.60;99.90
13436;DHT22;6790;49.520;8.504;2023-07-28T07:41:22;19.60;99.90
13436;DHT22;6790;49.520;8.504;2023-07-28T07:43:49;19.20;99.90
13436;DHT22;6790;49.520;8.504;2023-07-28T07:46:17;19.00;99.90
13436;DHT22;6790;49.520;8.504;2023-07-28T07:48:44;19.30;99.90
13436;DHT22;6790;49.520;8.504;2023-07-28T07:51:11;19.40;99.90
13436;DHT22;6790;49.520;8.504;2023-07-28T07:53:36;20.10;99.90
13436;DHT22;6790;49.520;8.504;2023-07-28T07:56:06;20.20;99.90
13436;DHT22;6790;49.520;8.504;2023-07-28T07:58:33;19.70;99.90
13436;DHT22;6790;49.520;8.504;2023-07-28T08:00:59;19.70;99.90
13436;DHT22;6790;49.520;8.504;2023-07-28T08:03:25;19.70;99.90
13436;DHT22;6790;49.520;8.504;2023-07-28T08:05:51;19.90;99.90
13436;DHT22;6790;49.520;8.504;2023-07-28T08:08:17;19.40;99.90
13436;DHT22;6790;49.520;8.504;2023-07-28T08:10:45;20.40;99.90
13436;DHT22;6790;49.520;8.504;2023-07-28T08:13:12;20.00;99.90
13436;DHT22;6790;49.520;8.504;2023-07-28T08:15:38;19.60;99.90
13436;DHT22;6790;49.520;8.504;2023-07-28T08:18:04;19.70;99.90
13436;DHT22;6790;49.520;8.504;2023-07-28T08:20:30;20.50;99.90
13436;DHT22;6790;49.520;8.504;2023-07-28T08:22:55;20.10;99.90
13436;DHT22;6790;49.520;8.504;2023-07-28T08:25:21;20.40;99.90
13436;DHT22;6790;49.520;8.504;2023-07-28T08:27:49;20.10;99.90
13436;DHT22;6790;49.520;8.504;2023-07-28T08:30:15;20.90;99.90
13436;DHT22;6790;49.520;8.504;2023-07-28T08:32:41;20.40;99.90
13436;DHT22;6790;49.520;8.504;2023-07-28T08:35:08;20.50;99.90
13436;DHT22;6790;49.520;8.504;2023-07-28T08:37:34;20.80;99.90
13436;DHT22;6790;49.520;8.504;2023-07-28T08:40:00;20.40;99.90
13436;DHT22;6790;49.520;8.504;2023-07-28T08:42:25;20.70;99.90
13436;DHT22;6790;49.520;8.504;2023-07-28T08:44:54;20.60;99.90
13436;DHT22;6790;49.520;8.504;2023-07-28T08:47:19;20.70;99.90
13436;DHT22;6790;49.520;8.504;2023-07-28T08:49:45;20.40;99.90
13436;DHT22;6790;49.520;8.504;2023-07-28T08:52:11;20.80;99.90
13436;DHT22;6790;49.520;8.504;2023-07-28T08:54:41;20.90;99.90
13436;DHT22;6790;49.520;8.504;2023-07-28T08:57:06;20.90;99.90
13436;DHT22;6790;49.520;8.504;2023-07-28T08:59:32;20.70;99.90
13436;DHT22;6790;49.520;8.504;2023-07-28T09:02:00;20.80;99.90
13436;DHT22;6790;49.520;8.504;2023-07-28T09:04:27;20.60;99.90
13436;DHT22;6790;49.520;8.504;2023-07-28T09:06:53;20.60;99.90
13436;DHT22;6790;49.520;8.504;2023-07-28T09:09:21;20.60;99.90
13436;DHT22;6790;49.520;8.504;2023-07-28T09:11:52;20.40;99.90
13436;DHT22;6790;49.520;8.504;2023-07-28T09:14:20;20.50;99.90
13436;DHT22;6790;49.520;8.504;2023-07-28T09:16:47;20.40;99.90
13436;DHT22;6790;49.520;8.504;2023-07-28T09:19:13;20.40;99.90
13436;DHT22;6790;49.520;8.504;2023-07-28T09:21:42;20.50;99.90
13436;DHT22;6790;49.520;8.504;2023-07-28T09:24:13;20.60;99.90
13436;DHT22;6790;49.520;8.504;2023-07-28T09:26:46;21.00;99.90
13436;DHT22;6790;49.520;8.504;2023-07-28T09:29:18;21.30;99.90
13436;DHT22;6790;49.520;8.504;2023-07-28T09:31:48;21.50;99.90
13436;DHT22;6790;49.520;8.504;2023-07-28T09:34:27;21.70;99.90
13436;DHT22;6790;49.520;8.504;2023-07-28T09:36:55;21.60;99.90
13436;DHT22;6790;49.520;8.504;2023-07-28T09:39:21;21.30;99.90
13436;DHT22;6790;49.520;8.504;2023-07-28T09:41:47;21.10;99.90
13436;DHT22;6790;49.520;8.504;2023-07-28T09:44:14;20.90;99.90
13436;DHT22;6790;49.520;8.504;2023-07-28T09:46:58;20.90;99.90
13436;DHT22;6790;49.520;8.504;2023-07-28T09:49:30;20.80;99.90
13436;DHT22;6790;49.520;8.504;2023-07-28T09:52:05;20.70;99.90
13436;DHT22;6790;49.520;8.504;2023-07-28T09:54:34;20.60;99.90
13436;DHT22;6790;49.520;8.504;2023-07-28T09:57:11;20.80;99.90
13436;DHT22;6790;49.520;8.504;2023-07-28T09:59:41;21.10;99.90
13436;DHT22;6790;49.520;8.504;2023-07-28T10:02:08;21.40;99.90
13436;DHT22;6790;49.520;8.504;2023-07-28T10:04:35;21.60;99.90
13436;DHT22;6790;49.520;8.504;2023-07-28T10:07:01;21.50;99.90
13436;DHT22;6790;49.520;8.504;2023-07-28T10:09:29;21.60;99.90
13436;DHT22;6790;49.520;8.504;2023-07-28T10:11:56;21.70;99.90
13436;DHT22;6790;49.520;8.504;2023-07-28T10:14:34;21.70;99.90
13436;DHT22;6790;49.520;8.504;2023-07-28T10:17:04;21.40;99.90
13436;DHT22;6790;49.520;8.504;2023-07-28T10:19:34;21.30;99.90
13436;DHT22;6790;49.520;8.504;2023-07-28T10:22:09;21.40;99.90
13436;DHT22;6790;49.520;8.504;2023-07-28T10:30:03;21.20;99.90
13436;DHT22;6790;49.520;8.504;2023-07-28T10:32:39;21.10;99.90
13436;DHT22;6790;49.520;8.504;2023-07-28T10:35:08;21.10;99.90
13436;DHT22;6790;49.520;8.504;2023-07-28T10:37:36;21.20;99.90
13436;DHT22;6790;49.520;8.504;2023-07-28T10:40:35;21.30;99.90
13436;DHT22;6790;49.520;8.504;2023-07-28T10:43:02;21.40;99.90
13436;DHT22;6790;49.520;8.504;2023-07-28T10:45:32;21.50;99.90
13436;DHT22;6790;49.520;8.504;2023-07-28T10:47:59;21.50;99.90
13436;DHT22;6790;49.520;8.504;2023-07-28T10:50:29;21.40;99.90
13436;DHT22;6790;49.520;8.504;2023-07-28T10:52:56;21.40;99.90
13436;DHT22;6790;49.520;8.504;2023-07-28T10:55:27;21.40;99.90
13436;DHT22;6790;49.520;8.504;2023-07-28T10:57:54;21.40;99.90
13436;DHT22;6790;49.520;8.504;2023-07-28T11:00:21;21.30;99.90
13436;DHT22;6790;49.520;8.504;2023-07-28T11:02:50;21.40;99.90
13436;DHT22;6790;49.520;8.504;2023-07-28T11:05:24;21.50;99.90
13436;DHT22;6790;49.520;8.504;2023-07-28T11:07:58;21.40;99.90
13436;DHT22;6790;49.520;8.504;2023-07-28T11:10:28;21.50;99.90
13436;DHT22;6790;49.520;8.504;2023-07-28T11:13:00;21.50;99.90
13436;DHT22;6790;49.520;8.504;2023-07-28T11:15:27;21.50;99.90
13436;DHT22;6790;49.520;8.504;2023-07-28T11:17:53;21.50;99.90
13436;DHT22;6790;49.520;8.504;2023-07-28T11:20:20;21.70;99.90
13436;DHT22;6790;49.520;8.504;2023-07-28T11:22:52;21.80;99.90
13436;DHT22;6790;49.520;8.504;2023-07-28T11:25:23;21.70;99.90
13436;DHT22;6790;49.520;8.504;2023-07-28T11:27:50;21.60;99.90
13436;DHT22;6790;49.520;8.504;2023-07-28T11:30:17;21.70;99.90
13436;DHT22;6790;49.520;8.504;2023-07-28T11:32:46;21.70;99.90
13436;DHT22;6790;49.520;8.504;2023-07-28T11:35:14;21.80;99.90
13436;DHT22;6790;49.520;8.504;2023-07-28T11:37:43;21.80;99.90
13436;DHT22;6790;49.520;8.504;2023-07-28T11:40:10;21.70;99.90
13436;DHT22;6790;49.520;8.504;2023-07-28T11:42:59;21.50;99.90
13436;DHT22;6790;49.520;8.504;2023-07-28T11:45:26;21.40;99.90
13436;DHT22;6790;49.520;8.504;2023-07-28T11:48:04;21.50;99.90
13436;DHT22;6790;49.520;8.504;2023-07-28T11:50:40;21.40;99.90
13436;DHT22;6790;49.520;8.504;2023-07-28T11:53:08;21.20;99.90
13436;DHT22;6790;49.520;8.504;2023-07-28T11:55:38;21.20;99.90
13436;DHT22;6790;49.520;8.504;2023-07-28T11:58:07;21.10;99.90
13436;DHT22;6790;49.520;8.504;2023-07-28T12:00:35;21.10;99.90
13436;DHT22;6790;49.520;8.504;2023-07-28T12:03:10;21.20;99.90
13436;DHT22;6790;49.520;8.504;2023-07-28T12:05:42;21.20;99.90
13436;DHT22;6790;49.520;8.504;2023-07-28T12:08:35;21.30;99.90
13436;DHT22;6790;49.520;8.504;2023-07-28T12:11:01;21.40;99.90
13436;DHT22;6790;49.520;8.504;2023-07-28T12:13:27;21.40;99.90
13436;DHT22;6790;49.520;8.504;2023-07-28T12:15:54;21.50;99.90
13436;DHT22;6790;49.520;8.504;2023-07-28T12:18:20;21.50;99.90
13436;DHT22;6790;49.520;8.504;2023-07-28T12:20:49;21.60;99.90
13436;DHT22;6790;49.520;8.504;2023-07-28T12:23:18;21.60;99.90
13436;DHT22;6790;49.520;8.504;2023-07-28T12:25:48;21.60;99.90
13436;DHT22;6790;49.520;8.504;2023-07-28T12:28:15;21.50;99.90
13436;DHT22;6790;49.520;8.504;2023-07-28T12:30:41;21.40;99.90
13436;DHT22;6790;49.520;8.504;2023-07-28T12:33:07;21.40;99.90
13436;DHT22;6790;49.520;8.504;2023-07-28T12:35:34;21.40;99.90
13436;DHT22;6790;49.520;8.504;2023-07-28T12:38:04;21.40;99.90
13436;DHT22;6790;49.520;8.504;2023-07-28T12:40:31;21.50;99.90
13436;DHT22;6790;49.520;8.504;2023-07-28T12:42:58;21.50;99.90
13436;DHT22;6790;49.520;8.504;2023-07-28T12:45:25;21.70;99.90
13436;DHT22;6790;49.520;8.504;2023-07-28T12:47:54;21.70;99.90
13436;DHT22;6790;49.520;8.504;2023-07-28T12:50:21;21.70;99.90
13436;DHT22;6790;49.520;8.504;2023-07-28T12:52:48;21.60;99.90
13436;DHT22;6790;49.520;8.504;2023-07-28T12:55:14;21.50;99.90
13436;DHT22;6790;49.520;8.504;2023-07-28T12:57:41;21.40;99.90
13436;DHT22;6790;49.520;8.504;2023-07-28T13:00:07;21.40;99.90
13436;DHT22;6790;49.520;8.504;2023-07-28T13:02:42;21.40;99.90
13436;DHT22;6790;49.520;8.504;2023-07-28T13:05:09;21.40;99.90
13436;DHT22;6790;49.520;8.504;2023-07-28T13:07:36;21.40;99.90
13436;DHT22;6790;49.520;8.504;2023-07-28T13:10:03;21.20;99.90
13436;DHT22;6790;49.520;8.504;2023-07-28T13:12:29;21.10;99.90
13436;DHT22;6790;49.520;8.504;2023-07-28T13:14:55;21.00;99.90
13436;DHT22;6790;49.520;8.504;2023-07-28T13:17:21;21.00;99.90
13436;DHT22;6790;49.520;8.504;2023-07-28T13:19:47;20.90;99.90
13436;DHT22;6790;49.520;8.504;2023-07-28T13:22:13;20.80;99.90
13436;DHT22;6790;49.520;8.504;2023-07-28T13:24:38;20.70;99.90
13436;DHT22;6790;49.520;8.504;2023-07-28T13:27:05;20.70;99.90
13436;DHT22;6790;49.520;8.504;2023-07-28T13:29:31;20.60;99.90
13436;DHT22;6790;49.520;8.504;2023-07-28T13:32:00;20.50;99.90
13436;DHT22;6790;49.520;8.504;2023-07-28T13:34:27;20.40;99.90
13436;DHT22;6790;49.520;8.504;2023-07-28T13:36:54;20.40;99.90
13436;DHT22;6790;49.520;8.504;2023-07-28T13:39:21;20.40;99.90
13436;DHT22;6790;49.520;8.504;2023-07-28T13:41:47;20.20;99.90
13436;DHT22;6790;49.520;8.504;2023-07-28T13:44:13;20.20;99.90
13436;DHT22;6790;49.520;8.504;2023-07-28T13:46:38;20.30;99.90
13436;DHT22;6790;49.520;8.504;2023-07-28T13:49:04;20.30;99.90
13436;DHT22;6790;49.520;8.504;2023-07-28T13:51:30;20.00;99.90
13436;DHT22;6790;49.520;8.504;2023-07-28T13:53:56;20.20;99.90
13436;DHT22;6790;49.520;8.504;2023-07-28T13:56:22;20.10;99.90
13436;DHT22;6790;49.520;8.504;2023-07-28T13:58:48;19.90;99.90
13436;DHT22;6790;49.520;8.504;2023-07-28T14:01:13;20.30;99.90
13436;DHT22;6790;49.520;8.504;2023-07-28T14:03:39;19.80;99.90
13436;DHT22;6790;49.520;8.504;2023-07-28T14:06:06;19.90;99.90
13436;DHT22;6790;49.520;8.504;2023-07-28T14:08:32;20.20;99.90
13436;DHT22;6790;49.520;8.504;2023-07-28T14:10:58;19.80;99.90
13436;DHT22;6790;49.520;8.504;2023-07-28T14:13:23;19.80;99.90
13436;DHT22;6790;49.520;8.504;2023-07-28T14:15:50;19.80;99.90
13436;DHT22;6790;49.520;8.504;2023-07-28T14:18:16;20.10;99.90
13436;DHT22;6790;49.520;8.504;2023-07-28T14:20:42;20.30;99.90
13436;DHT22;6790;49.520;8.504;2023-07-28T14:23:25;20.10;99.90
13436;DHT22;6790;49.520;8.504;2023-07-28T14:25:52;20.10;99.90
13436;DHT22;6790;49.520;8.504;2023-07-28T14:28:19;19.70;99.90
13436;DHT22;6790;49.520;8.504;2023-07-28T14:30:45;19.80;99.90
13436;DHT22;6790;49.520;8.504;2023-07-28T14:33:15;20.10;99.90
13436;DHT22;6790;49.520;8.504;2023-07-28T14:35:45;19.60;99.90
13436;DHT22;6790;49.520;8.504;2023-07-28T14:38:12;20.20;99.90
13436;DHT22;6790;49.520;8.504;2023-07-28T14:40:38;20.00;99.90
13436;DHT22;6790;49.520;8.504;2023-07-28T14:43:05;20.20;99.90
13436;DHT22;6790;49.520;8.504;2023-07-28T14:45:32;19.60;99.90
13436;DHT22;6790;49.520;8.504;2023-07-28T14:47:57;20.10;99.90
13436;DHT22;6790;49.520;8.504;2023-07-28T14:50:23;19.60;99.90
13436;DHT22;6790;49.520;8.504;2023-07-28T14:52:49;20.00;99.90
13436;DHT22;6790;49.520;8.504;2023-07-28T14:55:15;20.20;99.90
13436;DHT22;6790;49.520;8.504;2023-07-28T14:57:41;20.20;99.90
13436;DHT22;6790;49.520;8.504;2023-07-28T15:00:07;19.60;99.90
13436;DHT22;6790;49.520;8.504;2023-07-28T15:02:34;20.10;99.90
13436;DHT22;6790;49.520;8.504;2023-07-28T15:05:01;19.80;99.90
13436;DHT22;6790;49.520;8.504;2023-07-28T15:07:27;19.50;99.90
13436;DHT22;6790;49.520;8.504;2023-07-28T15:09:53;19.50;99.90
13436;DHT22;6790;49.520;8.504;2023-07-28T15:12:19;20.00;99.90
13436;DHT22;6790;49.520;8.504;2023-07-28T15:14:44;20.10;99.90
13436;DHT22;6790;49.520;8.504;2023-07-28T15:17:10;19.40;99.90
13436;DHT22;6790;49.520;8.504;2023-07-28T15:19:36;19.40;99.90
13436;DHT22;6790;49.520;8.504;2023-07-28T15:22:02;19.80;99.90
13436;DHT22;6790;49.520;8.504;2023-07-28T15:24:28;19.60;99.90
13436;DHT22;6790;49.520;8.504;2023-07-28T15:26:54;20.00;99.90
13436;DHT22;6790;49.520;8.504;2023-07-28T15:29:19;20.20;99.90
13436;DHT22;6790;49.520;8.504;2023-07-28T15:31:45;20.20;99.90
13436;DHT22;6790;49.520;8.504;2023-07-28T15:34:11;19.60;99.90
13436;DHT22;6790;49.520;8.504;2023-07-28T15:36:36;19.70;99.90
13436;DHT22;6790;49.520;8.504;2023-07-28T15:39:02;20.30;99.90
13436;DHT22;6790;49.520;8.504;2023-07-28T15:41:29;20.00;99.90
13436;DHT22;6790;49.520;8.504;2023-07-28T15:43:54;20.00;99.90
13436;DHT22;6790;49.520;8.504;2023-07-28T15:46:20;20.30;99.90
13436;DHT22;6790;49.520;8.504;2023-07-28T15:48:47;20.30;99.90
13436;DHT22;6790;49.520;8.504;2023-07-28T15:51:13;19.80;99.90
13436;DHT22;6790;49.520;8.504;2023-07-28T15:53:39;20.10;99.90
13436;DHT22;6790;49.520;8.504;2023-07-28T15:56:05;19.80;99.90